Aviation Digital Data Service (ADDS)

Output produced by METARs form (2112 UTC 11 February 2016)
found at http://aviationweather.gov/adds/metars/
 
KATL 111945Z 1120/1224 30004KT P6SM FEW050 
     FM120000 01004KT P6SM SCT040 SCT200 
     FM120300 02004KT P6SM SCT035 BKN200 
     FM120900 06005KT P6SM BKN030 
     FM121400 07005KT P6SM BKN025 
     FM121800 30008KT P6SM BKN025